Time,TemperatureF,DewpointF,PressureIn,WindDirection,WindDirectionDegrees,WindSpeedMPH,WindSpeedGustMPH,Humidity,HourlyPrecipIn,Conditions,Clouds,dailyrainin,SolarRadiationWatts/m^2,SoftwareType,DateUTC
2013-04-05 00:14:00,55.7,10.0,29.86,WNW,290,1.0,-999.0,16,-99.99,,,0.00,0,weatherlink.com 1.10,2013-04-05 06:14:00,
2013-04-05 00:29:00,55.9,10.0,29.86,WNW,300,0.0,-999.0,16,-99.99,,,0.00,0,weatherlink.com 1.10,2013-04-05 06:29:00,
2013-04-05 00:44:00,56.9,9.0,29.86,NW,315,0.0,-999.0,15,-99.99,,,0.00,0,weatherlink.com 1.10,2013-04-05 06:44:00,
2013-04-05 00:59:00,56.5,11.0,29.86,NW,316,0.0,-999.0,16,-99.99,,,0.00,0,weatherlink.com 1.10,2013-04-05 06:59:00,
2013-04-05 01:14:00,56.1,10.0,29.86,NNW,340,0.0,-999.0,16,-99.99,,,0.00,0,weatherlink.com 1.10,2013-04-05 07:14:00,
2013-04-05 01:29:00,55.6,10.0,29.85,NNW,340,0.0,-999.0,16,-99.99,,,0.00,0,weatherlink.com 1.10,2013-04-05 07:29:00,
2013-04-05 01:44:00,53.9,10.0,29.85,NNW,341,0.0,-999.0,17,-99.99,,,0.00,0,weatherlink.com 1.10,2013-04-05 07:44:00,
2013-04-05 01:59:00,53.3,9.0,29.84,NNW,339,0.0,-999.0,17,-99.99,,,0.00,0,weatherlink.com 1.10,2013-04-05 07:59:00,
2013-04-05 02:14:00,53.8,10.0,29.84,NNW,339,0.0,-999.0,17,-99.99,,,0.00,0,weatherlink.com 1.10,2013-04-05 08:14:00,
2013-04-05 02:30:00,54.2,10.0,29.83,NNW,339,0.0,-999.0,17,-99.99,,,0.00,0,weatherlink.com 1.10,2013-04-05 08:30:00,
2013-04-05 02:45:00,53.6,11.0,29.83,NNW,346,0.0,-999.0,18,-99.99,,,0.00,0,weatherlink.com 1.10,2013-04-05 08:45:00,
2013-04-05 03:15:00,52.3,10.0,29.82,NNW,347,0.0,-999.0,18,-99.99,,,0.00,0,weatherlink.com 1.10,2013-04-05 09:15:00,
2013-04-05 03:30:00,51.5,10.0,29.82,NNW,340,4.0,-999.0,19,-99.99,,,0.00,0,weatherlink.com 1.10,2013-04-05 09:30:00,
2013-04-05 04:00:00,51.4,11.0,29.82,NNW,340,0.0,-999.0,20,-99.99,,,0.00,0,weatherlink.com 1.10,2013-04-05 10:00:00,
2013-04-05 04:15:00,50.9,11.0,29.82,NNW,340,0.0,-999.0,20,-99.99,,,0.00,0,weatherlink.com 1.10,2013-04-05 10:15:00,
2013-04-05 04:30:00,50.4,12.0,29.82,NW,324,0.0,-999.0,21,-99.99,,,0.00,0,weatherlink.com 1.10,2013-04-05 10:30:00,
2013-04-05 04:45:00,51.0,11.0,29.82,NW,321,0.0,-999.0,20,-99.99,,,0.00,0,weatherlink.com 1.10,2013-04-05 10:45:00,
2013-04-05 05:00:00,50.8,11.0,29.82,NW,321,0.0,-999.0,20,-99.99,,,0.00,0,weatherlink.com 1.10,2013-04-05 11:00:00,
2013-04-05 05:15:00,50.2,11.0,29.82,NW,321,0.0,-999.0,21,-99.99,,,0.00,0,weatherlink.com 1.10,2013-04-05 11:15:00,
2013-04-05 05:30:00,49.7,11.0,29.83,NW,321,0.0,-999.0,21,-99.99,,,0.00,0,weatherlink.com 1.10,2013-04-05 11:30:00,
2013-04-05 05:45:00,49.3,12.0,29.82,NW,321,0.0,-999.0,22,-99.99,,,0.00,0,weatherlink.com 1.10,2013-04-05 11:45:00,
2013-04-05 06:00:00,49.7,12.0,29.82,SSW,198,0.0,-999.0,22,-99.99,,,0.00,0,weatherlink.com 1.10,2013-04-05 12:00:00,
2013-04-05 06:15:00,49.5,12.0,29.82,SSW,198,0.0,-999.0,22,-99.99,,,0.00,0,weatherlink.com 1.10,2013-04-05 12:15:00,
2013-04-05 06:30:00,49.0,12.0,29.82,SSW,198,0.0,-999.0,23,-99.99,,,0.00,0,weatherlink.com 1.10,2013-04-05 12:30:00,
2013-04-05 06:45:00,49.4,12.0,29.82,SSW,198,0.0,-999.0,22,-99.99,,,0.00,0,weatherlink.com 1.10,2013-04-05 12:45:00,
2013-04-05 07:00:00,48.7,12.0,29.82,SSW,198,0.0,-999.0,23,-99.99,,,0.00,7,weatherlink.com 1.10,2013-04-05 13:00:00,
2013-04-05 07:15:00,48.1,12.0,29.82,SSW,198,0.0,-999.0,23,-99.99,,,0.00,19,weatherlink.com 1.10,2013-04-05 13:15:00,
2013-04-05 07:30:00,47.3,12.0,29.83,SSW,198,0.0,-999.0,24,-99.99,,,0.00,39,weatherlink.com 1.10,2013-04-05 13:30:00,
2013-04-05 07:45:00,47.6,12.0,29.84,NNW,339,0.0,-999.0,24,-99.99,,,0.00,47,weatherlink.com 1.10,2013-04-05 13:45:00,
2013-04-05 08:00:00,48.4,13.0,29.84,NNW,340,0.0,-999.0,24,-99.99,,,0.00,98,weatherlink.com 1.10,2013-04-05 14:00:00,
2013-04-05 08:15:00,49.8,14.0,29.83,NNW,340,0.0,-999.0,24,-99.99,,,0.00,120,weatherlink.com 1.10,2013-04-05 14:15:00,
2013-04-05 08:30:00,51.4,14.0,29.83,NNW,339,0.0,-999.0,22,-99.99,,,0.00,251,weatherlink.com 1.10,2013-04-05 14:30:00,
2013-04-05 08:45:00,54.1,12.0,29.83,WNW,299,1.0,-999.0,19,-99.99,,,0.00,141,weatherlink.com 1.10,2013-04-05 14:45:00,
2013-04-05 09:00:00,56.5,13.0,29.83,SSW,200,4.0,-999.0,18,-99.99,,,0.00,396,weatherlink.com 1.10,2013-04-05 15:00:00,
2013-04-05 09:16:00,58.3,13.0,29.82,South,189,0.0,-999.0,17,-99.99,,,0.00,563,weatherlink.com 1.10,2013-04-05 15:16:00,
2013-04-05 09:30:00,59.8,13.0,29.82,South,182,1.0,-999.0,16,-99.99,,,0.00,478,weatherlink.com 1.10,2013-04-05 15:30:00,
2013-04-05 09:46:00,61.4,13.0,29.82,South,185,0.0,-999.0,15,-99.99,,,0.00,677,weatherlink.com 1.10,2013-04-05 15:46:00,
2013-04-05 10:01:00,62.5,12.0,29.81,SSW,192,1.0,-999.0,14,-99.99,,,0.00,243,weatherlink.com 1.10,2013-04-05 16:01:00,
2013-04-05 10:16:00,62.7,13.0,29.81,SW,217,1.0,-999.0,14,-99.99,,,0.00,371,weatherlink.com 1.10,2013-04-05 16:16:00,
2013-04-05 10:31:00,62.6,13.0,29.81,SW,216,2.0,-999.0,14,-99.99,,,0.00,427,weatherlink.com 1.10,2013-04-05 16:31:00,
2013-04-05 11:01:00,65.3,13.0,29.80,WSW,239,1.0,-999.0,13,-99.99,,,0.00,578,weatherlink.com 1.10,2013-04-05 17:01:00,
2013-04-05 11:31:00,67.8,11.0,29.78,South,190,6.0,-999.0,11,-99.99,,,0.00,548,weatherlink.com 1.10,2013-04-05 17:31:00,
2013-04-05 11:46:00,68.5,10.0,29.77,SSW,207,7.0,-999.0,10,-99.99,,,0.00,424,weatherlink.com 1.10,2013-04-05 17:46:00,
2013-04-05 12:01:00,69.0,10.0,29.76,SSW,205,8.0,-999.0,10,-99.99,,,0.00,817,weatherlink.com 1.10,2013-04-05 18:01:00,
2013-04-05 12:16:00,70.4,11.0,29.75,SW,232,0.0,-999.0,10,-99.99,,,0.00,707,weatherlink.com 1.10,2013-04-05 18:16:00,
2013-04-05 12:31:00,70.8,11.0,29.74,SSW,192,4.0,-999.0,10,-99.99,,,0.00,610,weatherlink.com 1.10,2013-04-05 18:31:00,
2013-04-05 12:46:00,70.5,9.0,29.73,South,180,4.0,-999.0,9,-99.99,,,0.00,689,weatherlink.com 1.10,2013-04-05 18:46:00,
2013-04-05 13:31:00,72.5,10.0,29.69,SSE,168,11.0,-999.0,9,-99.99,,,0.00,404,weatherlink.com 1.10,2013-04-05 19:31:00,
2013-04-05 13:46:00,71.7,10.0,29.68,South,183,4.0,-999.0,9,-99.99,,,0.00,237,weatherlink.com 1.10,2013-04-05 19:46:00,
2013-04-05 14:01:00,73.1,11.0,29.67,SSW,194,10.0,-999.0,9,-99.99,,,0.00,900,weatherlink.com 1.10,2013-04-05 20:01:00,
2013-04-05 14:16:00,74.1,12.0,29.66,SSW,208,10.0,-999.0,9,-99.99,,,0.00,882,weatherlink.com 1.10,2013-04-05 20:16:00,
2013-04-05 14:31:00,74.7,9.0,29.65,South,182,4.0,-999.0,8,-99.99,,,0.00,902,weatherlink.com 1.10,2013-04-05 20:31:00,
2013-04-05 14:47:00,75.0,12.0,29.63,South,175,9.0,-999.0,9,-99.99,,,0.00,854,weatherlink.com 1.10,2013-04-05 20:47:00,
2013-04-05 15:02:00,76.5,11.0,29.62,SSW,198,7.0,-999.0,8,-99.99,,,0.00,139,weatherlink.com 1.10,2013-04-05 21:02:00,
2013-04-05 15:16:00,74.7,9.0,29.61,SSW,196,5.0,-999.0,8,-99.99,,,0.00,206,weatherlink.com 1.10,2013-04-05 21:16:00,
2013-04-05 15:32:00,76.2,8.0,29.59,SW,230,5.0,-999.0,7,-99.99,,,0.00,169,weatherlink.com 1.10,2013-04-05 21:32:00,
2013-04-05 15:47:00,75.7,10.0,29.58,SSE,154,11.0,-999.0,8,-99.99,,,0.00,206,weatherlink.com 1.10,2013-04-05 21:47:00,
2013-04-05 16:02:00,75.3,10.0,29.56,South,175,13.0,-999.0,8,-99.99,,,0.00,76,weatherlink.com 1.10,2013-04-05 22:02:00,
2013-04-05 16:17:00,75.8,10.0,29.56,SW,214,1.0,-999.0,8,-99.99,,,0.00,51,weatherlink.com 1.10,2013-04-05 22:17:00,
2013-04-05 16:32:00,75.6,10.0,29.55,South,185,4.0,-999.0,8,-99.99,,,0.00,54,weatherlink.com 1.10,2013-04-05 22:32:00,
2013-04-05 16:47:00,75.1,10.0,29.55,SSW,195,12.0,-999.0,8,-99.99,,,0.00,74,weatherlink.com 1.10,2013-04-05 22:47:00,
2013-04-05 17:02:00,75.1,12.0,29.54,SW,236,10.0,-999.0,9,-99.99,,,0.00,56,weatherlink.com 1.10,2013-04-05 23:02:00,
2013-04-05 17:17:00,74.3,12.0,29.53,South,182,10.0,-999.0,9,-99.99,,,0.00,107,weatherlink.com 1.10,2013-04-05 23:17:00,
2013-04-05 17:32:00,73.9,14.0,29.52,SSW,196,6.0,-999.0,10,-99.99,,,0.00,83,weatherlink.com 1.10,2013-04-05 23:32:00,
2013-04-05 17:47:00,73.5,16.0,29.52,South,182,7.0,-999.0,11,-99.99,,,0.00,77,weatherlink.com 1.10,2013-04-05 23:47:00,
2013-04-05 18:02:00,73.9,16.0,29.52,SSW,205,6.0,-999.0,11,-99.99,,,0.00,95,weatherlink.com 1.10,2013-04-06 00:02:00,
2013-04-05 18:17:00,73.8,14.0,29.52,South,173,5.0,-999.0,10,-99.99,,,0.00,46,weatherlink.com 1.10,2013-04-06 00:17:00,
2013-04-05 18:32:00,73.9,9.0,29.52,West,263,11.0,-999.0,8,-99.99,,,0.00,32,weatherlink.com 1.10,2013-04-06 00:32:00,
2013-04-05 18:47:00,74.3,9.0,29.52,West,269,8.0,-999.0,8,-99.99,,,0.00,26,weatherlink.com 1.10,2013-04-06 00:47:00,
2013-04-05 19:02:00,73.8,9.0,29.52,NW,308,3.0,-999.0,8,-99.99,,,0.00,12,weatherlink.com 1.10,2013-04-06 01:02:00,
2013-04-05 19:17:00,72.4,10.0,29.53,WNW,295,10.0,-999.0,9,-99.99,,,0.00,7,weatherlink.com 1.10,2013-04-06 01:17:00,
2013-04-05 19:32:00,71.2,12.0,29.53,NW,315,3.0,-999.0,10,-99.99,,,0.00,0,weatherlink.com 1.10,2013-04-06 01:32:00,
2013-04-05 19:47:00,70.0,13.0,29.53,NW,323,4.0,-999.0,11,-99.99,,,0.00,0,weatherlink.com 1.10,2013-04-06 01:47:00,
2013-04-05 20:02:00,68.8,14.0,29.54,NW,315,4.0,-999.0,12,-99.99,,,0.00,0,weatherlink.com 1.10,2013-04-06 02:02:00,
2013-04-05 20:17:00,67.7,15.0,29.55,WNW,300,2.0,-999.0,13,-99.99,,,0.00,0,weatherlink.com 1.10,2013-04-06 02:17:00,
2013-04-05 20:32:00,67.0,16.0,29.55,NW,309,0.0,-999.0,14,-99.99,,,0.00,0,weatherlink.com 1.10,2013-04-06 02:32:00,
2013-04-05 20:47:00,66.3,17.0,29.56,NW,320,3.0,-999.0,15,-99.99,,,0.00,0,weatherlink.com 1.10,2013-04-06 02:47:00,
2013-04-05 21:03:00,65.6,17.0,29.56,WNW,301,1.0,-999.0,15,-99.99,,,0.00,0,weatherlink.com 1.10,2013-04-06 03:03:00,
2013-04-05 21:18:00,64.7,17.0,29.57,WNW,299,3.0,-999.0,16,-99.99,,,0.00,0,weatherlink.com 1.10,2013-04-06 03:18:00,
2013-04-05 21:32:00,64.1,18.0,29.57,NW,312,3.0,-999.0,17,-99.99,,,0.00,0,weatherlink.com 1.10,2013-04-06 03:32:00,
2013-04-05 21:47:00,63.4,18.0,29.57,NW,304,2.0,-999.0,17,-99.99,,,0.00,0,weatherlink.com 1.10,2013-04-06 03:47:00,
2013-04-05 22:03:00,62.7,17.0,29.58,NW,311,2.0,-999.0,17,-99.99,,,0.00,0,weatherlink.com 1.10,2013-04-06 04:03:00,
2013-04-05 22:18:00,62.5,17.0,29.58,WNW,288,7.0,-999.0,17,-99.99,,,0.00,0,weatherlink.com 1.10,2013-04-06 04:18:00,
2013-04-05 22:33:00,62.6,17.0,29.59,WNW,294,1.0,-999.0,17,-99.99,,,0.00,0,weatherlink.com 1.10,2013-04-06 04:33:00,
2013-04-05 22:48:00,62.1,17.0,29.59,NW,314,1.0,-999.0,17,-99.99,,,0.00,0,weatherlink.com 1.10,2013-04-06 04:48:00,
2013-04-05 23:03:00,61.7,18.0,29.59,NW,311,2.0,-999.0,18,-99.99,,,0.00,0,weatherlink.com 1.10,2013-04-06 05:03:00,
2013-04-05 23:33:00,60.7,17.0,29.60,WNW,285,0.0,-999.0,18,-99.99,,,0.00,0,weatherlink.com 1.10,2013-04-06 05:33:00,
2013-04-05 23:48:00,60.0,16.0,29.60,West,272,2.0,-999.0,18,-99.99,,,0.00,0,weatherlink.com 1.10,2013-04-06 05:48:00,